Time;durP1;ratioP1;P1;durP2;ratioP2;P2;SDS_P1;SDS_P2;PMS_P1;PMS_P2;Temp;Humidity;BMP_temperature;BMP_pressure;BME280_temperature;BME280_humidity;BME280_pressure;Samples;Min_cycle;Max_cycle;Signal;HPM_P1;HPM_P2
2022/04/01 00:03:45;;;;;;;3.67;2.30;;;8.30;54.40;;;;;;10494809;28;20248;-84
2022/04/01 00:08:47;;;;;;;3.67;2.57;;;9.60;63.10;;;;;;10483120;28;20263;-84
2022/04/01 00:13:50;;;;;;;5.37;3.57;;;10.70;55.10;;;;;;10454600;28;20237;-84
2022/04/01 00:18:52;;;;;;;5.77;4.27;;;10.10;51.70;;;;;;10455591;28;20240;-84
2022/04/01 00:23:55;;;;;;;7.60;4.13;;;9.10;49.50;;;;;;10455816;28;20248;-84
2022/04/01 00:28:57;;;;;;;5.10;3.73;;;9.20;41.70;;;;;;10455232;28;20694;-84
2022/04/01 00:34:15;;;;;;;4.10;2.57;;;8.80;49.60;;;;;;10437347;28;20678;-84
2022/04/01 00:39:19;;;;;;;9.87;4.73;;;8.00;56.40;;;;;;10486738;28;20241;-84
2022/04/01 00:44:24;;;;;;;5.40;3.90;;;9.40;53.90;;;;;;10496404;28;20308;-84
2022/04/01 00:49:28;;;;;;;5.20;3.30;;;8.10;39.10;;;;;;10473120;28;20246;-84
2022/04/01 00:54:31;;;;;;;2.87;2.03;;;8.80;47.30;;;;;;10482597;28;20256;-84
2022/04/01 00:59:33;;;;;;;10.57;4.10;;;8.50;62.00;;;;;;10493939;28;20237;-84
2022/04/01 01:04:38;;;;;;;5.97;3.57;;;7.60;51.50;;;;;;10492917;28;20276;-83
2022/04/01 01:09:44;;;;;;;5.80;3.73;;;9.60;51.20;;;;;;10493193;28;20248;-84
2022/04/01 01:14:47;;;;;;;7.63;3.70;;;8.80;40.20;;;;;;10461242;28;20700;-84
2022/04/01 01:19:50;;;;;;;5.67;3.70;;;8.40;45.00;;;;;;10443105;28;20248;-84
2022/04/01 01:24:52;;;;;;;3.40;2.50;;;8.60;50.20;;;;;;10451289;28;20255;-84
2022/04/01 01:29:55;;;;;;;5.87;3.90;;;9.80;56.40;;;;;;10471026;28;20230;-84
2022/04/01 01:34:59;;;;;;;5.47;3.57;;;7.90;44.90;;;;;;10451596;28;20341;-84
2022/04/01 01:40:03;;;;;;;5.43;3.70;;;9.60;45.30;;;;;;10408833;28;20236;-84
2022/04/01 01:45:07;;;;;;;4.17;3.23;;;9.60;45.00;;;;;;10433157;28;20306;-84
2022/04/01 01:55:31;;;;;;;6.27;3.83;;;8.00;57.60;;;;;;10395691;28;20209;-83
2022/04/01 02:00:38;;;;;;;5.63;2.57;;;7.40;44.10;;;;;;10410885;28;20212;-83
2022/04/01 02:05:40;;;;;;;9.97;4.37;;;9.00;60.90;;;;;;10434397;28;20710;-83
2022/04/01 02:10:43;;;;;;;2.30;2.10;;;6.20;42.40;;;;;;10406979;28;20246;-83
2022/04/01 02:15:45;;;;;;;3.90;2.07;;;8.20;60.40;;;;;;10418892;28;20304;-84
2022/04/01 02:20:50;;;;;;;3.07;2.10;;;;;;;;;;10391250;28;20399;-84
2022/04/01 02:25:52;;;;;;;4.20;3.80;;;6.60;92.00;;;;;;10391524;28;20255;-83
2022/04/01 02:30:55;;;;;;;5.70;3.73;;;7.90;53.70;;;;;;10405146;28;20236;-84
2022/04/01 02:36:18;;;;;;;4.10;3.20;;;8.50;47.40;;;;;;10411300;28;20289;-84
2022/04/01 02:41:21;;;;;;;7.00;4.90;;;7.30;54.00;;;;;;10400388;28;20617;-84
2022/04/01 02:46:24;;;;;;;10.17;4.40;;;;;;;;;;10449300;28;20254;-83
2022/04/01 02:51:29;;;;;;;5.37;2.43;;;5.30;45.40;;;;;;10414407;28;20204;-83
2022/04/01 02:56:42;;;;;;;6.33;3.40;;;8.30;56.40;;;;;;10408722;28;20726;-83
2022/04/01 03:01:44;;;;;;;6.20;3.57;;;6.90;55.50;;;;;;10407971;28;20681;-83
2022/04/01 03:06:47;;;;;;;5.90;4.20;;;6.70;50.00;;;;;;10394903;28;20199;-84
2022/04/01 03:11:51;;;;;;;6.27;4.27;;;7.00;57.00;;;;;;10374641;28;20203;-84
2022/04/01 03:17:14;;;;;;;7.40;4.23;;;6.00;48.10;;;;;;10409988;28;20270;-84
2022/04/01 03:22:17;;;;;;;7.47;3.70;;;6.00;47.30;;;;;;10389920;28;20263;-84
2022/04/01 03:27:20;;;;;;;5.57;4.10;;;6.70;47.50;;;;;;10394129;28;20249;-84
2022/04/01 03:32:22;;;;;;;8.10;4.10;;;6.50;47.20;;;;;;10397024;28;20227;-84
2022/04/01 03:37:25;;;;;;;4.57;2.83;;;5.90;46.50;;;;;;10390376;28;20286;-84
2022/04/01 03:42:32;;;;;;;5.27;3.03;;;6.90;67.60;;;;;;10390057;28;20313;-84
2022/04/01 03:48:04;;;;;;;2.97;2.43;;;7.20;66.60;;;;;;10404226;28;20731;-84
2022/04/01 03:53:09;;;;;;;4.90;3.20;;;7.60;66.40;;;;;;10407628;28;20230;-84
2022/04/01 03:58:14;;;;;;;7.20;4.30;;;6.60;44.10;;;;;;10396574;28;20231;-84
2022/04/01 04:03:53;;;;;;;6.33;4.07;;;6.20;51.50;;;;;;10268760;28;20313;-85
2022/04/01 04:08:57;;;;;;;8.63;5.43;;;4.70;55.60;;;;;;10256261;28;20324;-85
2022/04/01 04:14:02;;;;;;;8.33;4.40;;;5.70;51.90;;;;;;10256176;28;20253;-84
2022/04/01 04:19:10;;;;;;;14.60;9.10;;;4.80;56.20;;;;;;10267267;28;20269;-84
2022/04/01 04:24:42;;;;;;;5.10;4.30;;;5.40;57.50;;;;;;10260859;28;20249;-85
2022/04/01 04:29:50;;;;;;;3.83;2.73;;;6.10;52.40;;;;;;10267450;28;20781;-84
2022/04/01 04:35:09;;;;;;;22.33;8.00;;;7.60;58.70;;;;;;10299758;28;20324;-84
2022/04/01 04:40:17;;;;;;;16.17;8.20;;;6.20;43.90;;;;;;10398777;28;20787;-87
2022/04/01 04:45:27;;;;;;;11.67;7.90;;;5.90;51.30;;;;;;10419562;28;20697;-85
2022/04/01 04:50:34;;;;;;;5.23;3.20;;;5.30;61.40;;;;;;10409277;28;20235;-84
2022/04/01 04:55:36;;;;;;;11.30;5.13;;;3.70;62.50;;;;;;10402160;28;20284;-84
2022/04/01 05:00:45;;;;;;;22.40;10.77;;;6.50;54.50;;;;;;10435152;28;20344;-84
2022/04/01 05:05:57;;;;;;;15.67;7.33;;;6.50;48.70;;;;;;10433580;28;20312;-84
2022/04/01 05:11:14;;;;;;;22.90;10.90;;;4.60;51.40;;;;;;10459509;28;20741;-84
2022/04/01 05:17:00;;;;;;;17.63;7.40;;;3.50;52.00;;;;;;10404379;28;20277;-84
2022/04/01 05:22:10;;;;;;;7.93;5.10;;;3.40;63.20;;;;;;10393603;28;20277;-84
2022/04/01 05:27:45;;;;;;;7.60;3.70;;;3.50;57.20;;;;;;10409797;28;20254;-84
2022/04/01 05:33:01;;;;;;;8.07;3.27;;;3.60;48.00;;;;;;10394394;28;20207;-84
2022/04/01 05:38:07;;;;;;;5.17;3.67;;;3.00;50.00;;;;;;10428533;28;20592;-84
2022/04/01 05:43:14;;;;;;;5.03;3.57;;;4.30;62.00;;;;;;10434212;28;20716;-84
2022/04/01 05:48:36;;;;;;;7.17;3.53;;;4.20;48.60;;;;;;10459158;28;20773;-84
2022/04/01 05:53:39;;;;;;;8.40;3.20;;;4.90;54.90;;;;;;10456615;28;20206;-83
2022/04/01 05:58:42;;;;;;;7.60;4.23;;;5.70;46.20;;;;;;10473018;28;20647;-84
2022/04/01 06:04:06;;;;;;;4.87;3.13;;;4.20;55.10;;;;;;10458715;28;20258;-84
2022/04/01 06:09:42;;;;;;;7.00;2.93;;;5.90;53.30;;;;;;10470593;28;20598;-83
2022/04/01 06:16:04;;;;;;;5.87;3.40;;;3.80;48.40;;;;;;10479432;28;20261;-84
2022/04/01 06:21:27;;;;;;;6.37;3.30;;;4.40;49.80;;;;;;10386445;28;20338;-83
2022/04/01 06:26:34;;;;;;;8.47;3.47;;;4.50;61.30;;;;;;10379388;28;20297;-84
2022/04/01 06:31:43;;;;;;;6.43;4.00;;;5.80;55.80;;;;;;10403867;28;20286;-84
2022/04/01 06:37:02;;;;;;;10.53;3.60;;;3.90;55.30;;;;;;10386872;28;20267;-83
2022/04/01 06:42:13;;;;;;;9.50;3.30;;;4.50;47.40;;;;;;10386448;28;20230;-84
2022/04/01 06:47:44;;;;;;;4.43;3.00;;;7.40;54.70;;;;;;10394530;28;20286;-83
2022/04/01 06:52:46;;;;;;;6.23;2.80;;;5.80;54.20;;;;;;10346701;28;20285;-84
2022/04/01 06:58:14;;;;;;;12.37;3.10;;;9.10;54.40;;;;;;10491967;28;20210;-90
2022/04/01 07:03:27;;;;;;;8.93;3.53;;;8.00;46.90;;;;;;10474627;28;20645;-90
2022/04/01 07:08:31;;;;;;;9.50;3.07;;;8.40;49.00;;;;;;10490395;28;20234;-90
2022/04/01 07:13:34;;;;;;;16.80;3.63;;;4.70;46.00;;;;;;10490917;28;20230;-90
2022/04/01 07:18:37;;;;;;;10.17;3.77;;;6.90;46.20;;;;;;10474143;28;20206;-91
2022/04/01 07:23:39;;;;;;;7.20;3.60;;;7.20;46.00;;;;;;10480100;28;20280;-90
2022/04/01 07:28:42;;;;;;;12.07;3.53;;;7.50;45.80;;;;;;10435594;28;20578;-89
2022/04/01 07:34:05;;;;;;;11.73;4.03;;;7.70;43.00;;;;;;10465543;28;20761;-88
2022/04/01 07:39:07;;;;;;;7.47;3.23;;;9.10;43.70;;;;;;10478274;28;20732;-89
2022/04/01 07:44:10;;;;;;;8.30;3.37;;;9.50;41.50;;;;;;10494500;28;20773;-88
2022/04/01 07:49:12;;;;;;;7.13;3.03;;;8.10;51.90;;;;;;10496100;28;20295;-88
2022/04/01 07:54:31;;;;;;;5.47;3.10;;;9.40;49.90;;;;;;10470064;28;20226;-88
2022/04/01 07:59:35;;;;;;;10.03;4.03;;;8.90;49.20;;;;;;10437655;28;20260;-88
2022/04/01 08:04:38;;;;;;;13.73;3.27;;;8.50;41.60;;;;;;10488346;28;20733;-88
2022/04/01 08:09:47;;;;;;;115.40;9.27;;;8.70;47.70;;;;;;10453609;28;20278;-88
2022/04/01 08:14:50;;;;;;;9.77;3.40;;;8.80;41.50;;;;;;10479325;28;20234;-88
2022/04/01 08:19:52;;;;;;;11.70;2.83;;;9.50;44.00;;;;;;10458489;28;20724;-89
2022/04/01 08:24:55;;;;;;;8.70;3.57;;;11.30;41.30;;;;;;10494142;28;20287;-89
2022/04/01 08:29:59;;;;;;;18.10;4.27;;;8.70;43.90;;;;;;10470512;28;20690;-88
2022/04/01 08:35:02;;;;;;;15.73;3.23;;;7.80;43.00;;;;;;10431735;28;20258;-88
2022/04/01 08:40:05;;;;;;;15.70;4.20;;;9.60;44.90;;;;;;10378298;28;20268;-88
2022/04/01 08:45:09;;;;;;;24.30;4.67;;;10.30;49.20;;;;;;10395099;28;20309;-88
2022/04/01 08:50:12;;;;;;;18.27;4.10;;;12.60;38.00;;;;;;10427769;28;20288;-88
2022/04/01 08:55:15;;;;;;;13.20;3.47;;;8.90;41.80;;;;;;10434845;28;20631;-88
2022/04/01 09:00:17;;;;;;;21.13;4.20;;;9.10;41.00;;;;;;10435525;28;20217;-88
2022/04/01 09:05:20;;;;;;;20.80;4.23;;;;;;;;;;10395540;28;20270;-88
2022/04/01 09:10:23;;;;;;;6.87;2.93;;;10.10;39.40;;;;;;10406672;28;20674;-88
2022/04/01 09:15:42;;;;;;;14.27;3.07;;;8.80;42.90;;;;;;10392347;28;20240;-87
2022/04/01 09:20:50;;;;;;;18.70;3.37;;;9.60;47.00;;;;;;10388430;28;20236;-88
2022/04/01 09:25:53;;;;;;;14.13;3.43;;;9.60;46.90;;;;;;10434008;28;20276;-88
2022/04/01 09:31:10;;;;;;;7.37;2.87;;;10.20;40.30;;;;;;10426342;28;20331;-88
2022/04/01 09:36:36;;;;;;;20.60;3.57;;;10.50;43.40;;;;;;10391491;28;20287;-88
2022/04/01 09:41:41;;;;;;;42.43;6.40;;;9.70;43.60;;;;;;10381171;28;20235;-88
2022/04/01 09:47:04;;;;;;;13.20;3.20;;;8.10;41.00;;;;;;10417970;28;20258;-88
2022/04/01 09:52:08;;;;;;;3.77;1.73;;;10.00;41.40;;;;;;10411311;28;20210;-88
2022/04/01 09:57:10;;;;;;;12.73;3.77;;;11.00;53.90;;;;;;10395333;28;20283;-89
2022/04/01 10:02:14;;;;;;;9.47;3.60;;;8.30;38.70;;;;;;10395999;28;20227;-89
2022/04/01 10:07:19;;;;;;;12.50;4.20;;;8.20;47.10;;;;;;10382378;28;20293;-88
2022/04/01 10:12:26;;;;;;;6.40;2.60;;;9.30;45.60;;;;;;10402024;28;20230;-88
2022/04/01 10:17:29;;;;;;;22.47;4.83;;;8.10;42.20;;;;;;10409657;28;20230;-88
2022/04/01 10:22:33;;;;;;;9.47;2.50;;;7.70;41.60;;;;;;10406829;28;20206;-88
2022/04/01 10:27:40;;;;;;;12.07;2.87;;;10.20;50.20;;;;;;10411176;28;20244;-88
2022/04/01 10:32:45;;;;;;;17.10;3.17;;;10.40;41.70;;;;;;10424724;28;20227;-88
2022/04/01 10:37:55;;;;;;;31.23;4.50;;;9.00;42.30;;;;;;10406213;28;20705;-88
2022/04/01 10:43:13;;;;;;;29.27;4.37;;;8.00;40.90;;;;;;10446853;28;20238;-88
2022/04/01 10:53:45;;;;;;;5.80;2.57;;;8.00;40.70;;;;;;10469449;28;20619;-88
2022/04/01 10:59:06;;;;;;;26.50;3.37;;;8.90;47.90;;;;;;10448170;28;20227;-88
2022/04/01 11:04:12;;;;;;;30.70;5.07;;;7.70;39.90;;;;;;10430690;28;20254;-88
2022/04/01 11:09:32;;;;;;;38.17;4.77;;;8.20;39.50;;;;;;10449242;28;20852;-88
2022/04/01 11:15:10;;;;;;;42.20;5.30;;;7.20;37.40;;;;;;10459288;28;20231;-88
2022/04/01 11:20:18;;;;;;;14.57;4.23;;;9.10;47.70;;;;;;10475914;28;20281;-88
2022/04/01 11:25:32;;;;;;;26.30;5.07;;;9.30;50.60;;;;;;10467357;28;20250;-88
2022/04/01 11:30:42;;;;;;;22.03;4.33;;;9.10;44.00;;;;;;10486862;28;20230;-88
2022/04/01 11:35:49;;;;;;;26.73;4.13;;;9.50;39.80;;;;;;10443021;28;20641;-88
2022/04/01 11:40:55;;;;;;;32.17;5.27;;;9.10;46.30;;;;;;10404505;28;20277;-88
2022/04/01 11:46:02;;;;;;;18.37;3.03;;;7.60;38.50;;;;;;10395058;28;20308;-88
2022/04/01 11:51:20;;;;;;;30.60;4.50;;;8.70;43.30;;;;;;10414051;28;20248;-88
2022/04/01 11:56:26;;;;;;;41.70;5.37;;;9.20;36.20;;;;;;10397051;28;20302;-87
2022/04/01 12:01:54;;;;;;;8.50;3.37;;;9.30;36.80;;;;;;10436530;28;20234;-88
2022/04/01 12:12:35;;;;;;;25.07;4.23;;;9.90;45.80;;;;;;10423608;28;20268;-88
2022/04/01 12:17:50;;;;;;;18.50;3.93;;;9.90;35.00;;;;;;10395210;28;20300;-88
2022/04/01 12:22:54;;;;;;;36.00;4.47;;;9.70;39.80;;;;;;10396989;28;20265;-88
2022/04/01 12:28:04;;;;;;;18.63;3.53;;;7.90;35.90;;;;;;10407678;28;20711;-88
2022/04/01 12:33:20;;;;;;;9.87;2.63;;;9.20;48.30;;;;;;10395873;28;20220;-88
2022/04/01 12:38:38;;;;;;;22.27;4.10;;;11.50;49.90;;;;;;10436607;28;20299;-87
2022/04/01 12:43:45;;;;;;;14.37;3.00;;;10.10;38.00;;;;;;10436608;28;20232;-88
2022/04/01 12:48:56;;;;;;;10.90;3.40;;;8.50;37.00;;;;;;10436697;28;20298;-89
2022/04/01 12:54:03;;;;;;;18.30;2.90;;;7.90;35.70;;;;;;10473813;28;20244;-90
2022/04/01 12:59:24;;;;;;;19.43;3.63;;;9.30;47.90;;;;;;10494459;28;20204;-89
2022/04/01 13:04:28;;;;;;;26.40;4.30;;;10.30;36.40;;;;;;10478031;28;20235;-90
2022/04/01 13:09:31;;;;;;;20.33;3.43;;;8.80;35.70;;;;;;10495241;28;20268;-90
2022/04/01 13:14:34;;;;;;;17.30;3.43;;;10.10;44.90;;;;;;10485461;28;20274;-85
2022/04/01 13:19:37;;;;;;;19.20;2.97;;;9.20;41.50;;;;;;10471682;28;20774;-87
2022/04/01 13:30:13;;;;;;;13.03;3.03;;;8.80;37.50;;;;;;11062892;22;10002215;-85
2022/04/01 13:35:17;;;;;;;23.93;4.83;;;8.80;36.70;;;;;;10352548;28;20232;-86
2022/04/01 13:40:22;;;;;;;5.33;3.30;;;8.10;36.20;;;;;;10305606;28;20209;-86
2022/04/01 13:45:33;;;;;;;19.60;4.40;;;9.30;41.20;;;;;;10313025;28;20705;-86
2022/04/01 13:50:37;;;;;;;14.40;2.87;;;8.30;36.30;;;;;;10329059;28;20229;-89
2022/04/01 13:55:39;;;;;;;11.97;2.77;;;8.80;41.10;;;;;;10311174;28;20236;-88
2022/04/01 14:00:42;;;;;;;15.80;3.47;;;9.10;33.30;;;;;;10327112;28;20276;-89
2022/04/01 14:05:45;;;;;;;18.37;3.67;;;10.00;37.20;;;;;;10310984;28;20262;-89
2022/04/01 14:10:48;;;;;;;12.53;3.10;;;9.20;36.30;;;;;;10328809;28;20718;-88
2022/04/01 14:15:51;;;;;;;9.07;3.00;;;7.80;35.90;;;;;;10327473;28;20248;-89
2022/04/01 14:20:57;;;;;;;16.67;4.03;;;7.80;36.50;;;;;;10294853;28;20671;-88
2022/04/01 14:26:08;;;;;;;19.70;3.97;;;7.80;36.70;;;;;;10327520;28;20244;-82
2022/04/01 14:31:11;;;;;;;11.67;3.07;;;7.30;36.20;;;;;;10325034;28;20303;-81
2022/04/01 14:36:14;;;;;;;18.27;3.93;;;7.70;40.80;;;;;;10328020;28;20275;-80
2022/04/01 14:41:17;;;;;;;19.47;4.17;;;9.30;46.60;;;;;;10311001;28;20589;-81
2022/04/01 14:46:20;;;;;;;15.80;3.20;;;8.70;38.50;;;;;;10327431;28;20252;-81
2022/04/01 14:51:22;;;;;;;11.03;3.30;;;8.40;37.90;;;;;;10309974;28;20944;-81
2022/04/01 14:56:25;;;;;;;9.70;3.00;;;7.80;38.10;;;;;;10326856;28;20256;-81
2022/04/01 15:01:28;;;;;;;25.37;5.20;;;8.60;44.00;;;;;;10327224;28;20239;-81
2022/04/01 15:06:30;;;;;;;14.90;4.07;;;9.00;35.00;;;;;;10310381;28;20252;-81
2022/04/01 15:11:33;;;;;;;23.90;4.57;;;8.10;35.50;;;;;;10327501;28;20232;-81
2022/04/01 15:16:36;;;;;;;19.53;5.33;;;8.20;36.60;;;;;;10309180;28;20240;-81
2022/04/01 15:21:38;;;;;;;11.30;3.67;;;8.40;34.80;;;;;;10326660;28;20229;-81
2022/04/01 15:26:43;;;;;;;4.77;3.13;;;8.40;37.50;;;;;;10327285;28;20256;-81
2022/04/01 15:31:47;;;;;;;7.13;3.10;;;8.80;43.80;;;;;;10320147;28;20264;-81
2022/04/01 15:36:50;;;;;;;13.03;3.40;;;10.20;35.10;;;;;;10326205;28;20231;-81
2022/04/01 15:41:54;;;;;;;17.27;3.87;;;9.00;41.00;;;;;;10326054;28;20227;-81
2022/04/01 15:46:58;;;;;;;9.73;2.50;;;9.00;36.00;;;;;;10307933;28;20257;-81
2022/04/01 15:52:01;;;;;;;10.67;3.13;;;10.50;41.90;;;;;;10305670;28;20680;-81
2022/04/01 15:57:05;;;;;;;12.53;3.23;;;9.70;39.50;;;;;;10307386;28;20246;-81
2022/04/01 16:02:12;;;;;;;12.47;3.07;;;9.50;39.60;;;;;;10333173;28;20229;-81
2022/04/01 16:07:15;;;;;;;8.53;2.53;;;9.00;39.10;;;;;;10333520;28;20305;-81
2022/04/01 16:12:21;;;;;;;11.47;3.53;;;9.10;45.20;;;;;;9623633;28;10000704;-81
2022/04/01 16:17:25;;;;;;;6.47;3.73;;;7.70;41.00;;;;;;10335630;28;20237;-81
2022/04/01 16:22:28;;;;;;;14.67;3.70;;;8.40;38.90;;;;;;10321409;28;20232;-81
2022/04/01 16:27:30;;;;;;;28.47;4.30;;;7.70;47.60;;;;;;10310338;28;20283;-81
2022/04/01 16:32:35;;;;;;;17.10;4.43;;;7.40;43.00;;;;;;10308698;28;20257;-81
2022/04/01 16:37:38;;;;;;;28.60;5.57;;;7.00;43.00;;;;;;10309424;28;20260;-81
2022/04/01 16:42:40;;;;;;;25.07;5.70;;;6.40;42.10;;;;;;10326180;28;20688;-81
2022/04/01 16:47:44;;;;;;;14.43;4.37;;;6.60;42.20;;;;;;10326911;28;20256;-81
2022/04/01 16:52:46;;;;;;;20.47;4.83;;;6.30;46.10;;;;;;10292895;28;20228;-81
2022/04/01 16:57:50;;;;;;;13.93;4.83;;;6.20;44.90;;;;;;10295520;28;20673;-81
2022/04/01 17:02:53;;;;;;;22.50;5.43;;;5.90;43.10;;;;;;10326055;28;20220;-81
2022/04/01 17:13:17;;;;;;;30.23;5.00;;;5.60;46.20;;;;;;10307110;28;20705;-81
2022/04/01 17:18:21;;;;;;;13.93;5.33;;;5.70;44.20;;;;;;10326804;28;20283;-81
2022/04/01 17:23:25;;;;;;;15.13;4.33;;;5.70;45.80;;;;;;9983655;28;10000592;-81
2022/04/01 17:28:28;;;;;;;18.33;5.53;;;6.20;47.40;;;;;;10311319;28;20311;-81
2022/04/01 17:33:33;;;;;;;19.30;6.47;;;6.00;44.90;;;;;;10325588;23;20259;-78
2022/04/01 17:38:37;;;;;;;18.07;6.10;;;5.80;45.50;;;;;;10352404;28;20666;-78
2022/04/01 17:43:40;;;;;;;19.57;5.27;;;5.50;46.00;;;;;;10356084;28;20580;-77
2022/04/01 17:48:43;;;;;;;15.53;4.13;;;5.20;48.90;;;;;;10363667;28;20248;-77
2022/04/01 17:53:46;;;;;;;18.67;4.17;;;5.10;49.20;;;;;;10361104;28;20231;-77
2022/04/01 17:58:52;;;;;;;17.07;3.80;;;4.30;50.90;;;;;;10366618;28;20596;-77
2022/04/01 18:03:57;;;;;;;9.30;4.17;;;4.30;51.30;;;;;;10341379;28;20699;-77
2022/04/01 18:09:03;;;;;;;13.67;3.60;;;4.50;51.90;;;;;;10361766;28;20248;-77
2022/04/01 18:14:08;;;;;;;15.90;4.63;;;4.70;51.90;;;;;;10338911;28;20235;-78
2022/04/01 18:19:11;;;;;;;6.90;2.63;;;5.00;52.20;;;;;;10345317;28;20240;-77
2022/04/01 18:24:14;;;;;;;19.87;6.33;;;6.00;52.60;;;;;;10354023;28;20685;-78
2022/04/01 18:29:31;;;;;;;10.07;3.80;;;5.80;55.10;;;;;;10351181;28;20233;-77
2022/04/01 18:34:36;;;;;;;9.50;3.67;;;4.60;52.40;;;;;;10002452;28;10000268;-78
2022/04/01 18:39:40;;;;;;;19.90;4.73;;;4.70;54.00;;;;;;10326087;28;20268;-78
2022/04/01 18:44:43;;;;;;;13.53;4.07;;;4.10;54.70;;;;;;10310061;28;20700;-78
2022/04/01 18:49:46;;;;;;;8.07;3.93;;;4.10;55.90;;;;;;10347196;28;20664;-77
2022/04/01 18:54:49;;;;;;;20.70;3.37;;;4.20;58.70;;;;;;10342316;28;20235;-78
2022/04/01 18:59:52;;;;;;;15.27;3.93;;;4.50;61.30;;;;;;10362523;28;20285;-78
2022/04/01 19:05:06;;;;;;;13.07;4.40;;;5.10;54.50;;;;;;10362047;28;20258;-77
2022/04/01 19:10:11;;;;;;;10.27;4.07;;;4.20;58.10;;;;;;10356371;28;20709;-78
2022/04/01 19:15:23;;;;;;;15.53;4.80;;;4.80;56.90;;;;;;10325410;28;20287;-77
2022/04/01 19:20:33;;;;;;;11.70;4.23;;;3.70;57.30;;;;;;10324156;28;20245;-78
2022/04/01 19:25:39;;;;;;;12.30;3.80;;;5.10;58.30;;;;;;10331127;28;20235;-78
2022/04/01 19:30:42;;;;;;;14.90;5.47;;;5.10;59.50;;;;;;10341467;28;20295;-77
2022/04/01 19:35:45;;;;;;;9.27;4.70;;;4.80;56.00;;;;;;10360082;28;20707;-78
2022/04/01 19:40:48;;;;;;;9.43;3.83;;;4.20;57.00;;;;;;10370531;28;20739;-78
2022/04/01 19:45:50;;;;;;;7.87;3.60;;;5.30;58.00;;;;;;10353536;28;20228;-78
2022/04/01 19:50:53;;;;;;;11.53;4.30;;;5.00;59.10;;;;;;10350098;28;20282;-77
2022/04/01 19:55:56;;;;;;;11.50;3.90;;;4.00;60.40;;;;;;10353614;28;20619;-78
2022/04/01 20:00:59;;;;;;;7.50;3.97;;;3.30;60.80;;;;;;10354482;28;20795;-78
2022/04/01 20:06:02;;;;;;;9.50;4.07;;;3.60;61.90;;;;;;10353568;28;20229;-78
2022/04/01 20:11:05;;;;;;;5.50;3.20;;;;;;;;;;10325760;28;20290;-78
2022/04/01 20:16:08;;;;;;;5.23;3.13;;;3.90;76.40;;;;;;10329379;28;20689;-78
2022/04/01 20:21:14;;;;;;;3.37;2.60;;;4.10;66.00;;;;;;10320443;28;20633;-78
2022/04/01 20:26:20;;;;;;;6.57;3.80;;;5.30;66.10;;;;;;10351396;28;20252;-79
2022/04/01 20:31:23;;;;;;;10.33;3.57;;;4.50;58.90;;;;;;10342694;28;20364;-78
2022/04/01 20:36:26;;;;;;;7.47;3.90;;;4.40;60.60;;;;;;10349491;28;20283;-78
2022/04/01 20:41:29;;;;;;;7.43;3.77;;;4.40;61.40;;;;;;10349729;28;20236;-78
2022/04/01 20:46:32;;;;;;;11.30;4.47;;;3.80;66.40;;;;;;10356059;28;20256;-78
2022/04/01 20:51:38;;;;;;;5.67;3.77;;;4.00;64.50;;;;;;10341620;28;20251;-78
2022/04/01 20:56:41;;;;;;;8.00;4.20;;;2.80;65.70;;;;;;10343273;28;20297;-78
2022/04/01 21:01:43;;;;;;;5.30;2.57;;;3.00;67.00;;;;;;10345323;28;20309;-78
2022/04/01 21:06:46;;;;;;;6.47;4.07;;;3.40;69.80;;;;;;10359606;28;20773;-78
2022/04/01 21:11:53;;;;;;;6.83;3.77;;;3.50;67.70;;;;;;10382217;28;20228;-79
2022/04/01 21:16:56;;;;;;;4.87;3.43;;;3.30;65.30;;;;;;10365013;28;20232;-78
2022/04/01 21:21:58;;;;;;;8.33;4.03;;;3.10;65.80;;;;;;10325028;28;20236;-78
2022/04/01 21:32:22;;;;;;;7.60;3.50;;;3.50;66.70;;;;;;10347323;28;20290;-79
2022/04/01 21:37:25;;;;;;;6.20;3.03;;;3.50;67.30;;;;;;10345575;28;20406;-81
2022/04/01 21:42:27;;;;;;;8.53;4.27;;;2.40;69.40;;;;;;10352104;28;20228;-79
2022/04/01 21:47:30;;;;;;;5.93;2.90;;;2.10;70.10;;;;;;10338200;28;20325;-79
2022/04/01 21:52:32;;;;;;;9.13;4.27;;;3.30;70.40;;;;;;10350878;28;20236;-77
2022/04/01 21:57:35;;;;;;;12.53;3.77;;;2.00;71.00;;;;;;10342895;28;20237;-79
2022/04/01 22:02:38;;;;;;;6.00;3.57;;;2.30;70.20;;;;;;10339207;28;20240;-78
2022/04/01 22:07:40;;;;;;;6.20;3.43;;;2.10;70.90;;;;;;10333249;28;20244;-79
2022/04/01 22:12:43;;;;;;;6.07;4.07;;;4.30;69.50;;;;;;10341018;28;20600;-81
2022/04/01 22:17:45;;;;;;;10.77;3.20;;;3.00;69.30;;;;;;10352071;28;20294;-80
2022/04/01 22:22:48;;;;;;;6.60;3.17;;;2.70;71.00;;;;;;10360503;28;20236;-78
2022/04/01 22:27:51;;;;;;;7.50;4.07;;;3.00;69.20;;;;;;10331329;28;20247;-82
2022/04/01 22:32:53;;;;;;;7.03;3.63;;;3.40;66.50;;;;;;10346738;28;20640;-81
2022/04/01 22:37:56;;;;;;;3.70;2.70;;;2.10;72.10;;;;;;10341600;28;20289;-80
2022/04/01 22:43:00;;;;;;;2.93;2.07;;;3.90;68.60;;;;;;10329497;28;20262;-81
2022/04/01 22:48:04;;;;;;;6.13;3.47;;;2.80;75.80;;;;;;10349234;28;20310;-81
2022/04/01 22:53:08;;;;;;;6.47;3.47;;;2.80;70.20;;;;;;10344108;28;20225;-81
2022/04/01 22:58:11;;;;;;;6.43;3.23;;;2.60;74.90;;;;;;10345569;28;20221;-83
2022/04/01 23:03:14;;;;;;;5.00;1.80;;;2.40;75.10;;;;;;10354350;28;20293;-78
2022/04/01 23:08:17;;;;;;;9.47;3.40;;;3.90;76.20;;;;;;10355278;28;20277;-77
2022/04/01 23:13:20;;;;;;;10.00;3.53;;;4.60;65.90;;;;;;10375931;28;20196;-77
2022/04/01 23:18:22;;;;;;;2.60;2.07;;;4.10;67.80;;;;;;10374637;28;20657;-77
2022/04/01 23:23:25;;;;;;;5.73;3.53;;;3.00;81.60;;;;;;10374266;28;20278;-77
2022/04/01 23:28:27;;;;;;;5.27;2.40;;;3.00;73.90;;;;;;10365957;28;20310;-78
2022/04/01 23:33:30;;;;;;;17.07;3.80;;;4.20;75.40;;;;;;10357038;28;20278;-78
2022/04/01 23:38:32;;;;;;;5.17;2.93;;;2.00;77.50;;;;;;10335095;28;20236;-78
2022/04/01 23:43:35;;;;;;;5.63;3.80;;;2.60;78.00;;;;;;10356932;28;20231;-78
2022/04/01 23:48:37;;;;;;;7.00;3.40;;;1.90;76.60;;;;;;10324144;28;20253;-78
2022/04/01 23:53:40;;;;;;;5.87;3.30;;;2.90;75.90;;;;;;10340535;28;20259;-78
2022/04/01 23:58:42;;;;;;;6.93;4.47;;;4.50;73.50;;;;;;10334243;28;20425;-78
